Tiempo atmosférico en la estación meteorológica de Valdezcaray, estación de esquí, La Rioja (1630 m.)



Fecha
DESCASC
Temp. máxima en grados centígrados (hora)
DESCASC
Temp. mínima en grados centígrados (hora)
DESCASC
Temp. media en grados centígrados
DESCASC
Racha de viento máxima en m/sg (hora)
DESCASC
Velocidad máxima media en intervalos de 10 minutos(hora)
DESCASC
Precipitaciones diarias en mm
DESCASC
Precipitaciones de 00:00 a 06:00 en mm
DESCASC
Precipitaciones de 06:00 a 12:00 en mm
DESCASC
Precipitaciones de 12:00 a 18:00 en mm
DESCASC
Precipitaciones de 18:00 a 24:00 en mm
DESCASC
25-04-2019 3.1 (00:00) -1.1 (06:50) 1 29.17 (20:50) 11.39 (20:40) 16 10.4 3.2 2.2 0.2
24-04-2019 5.2 (17:20) -1.8 (06:40) 1.7 36.94 (15:50) 20.28 (15:50) 40.8 0.4 5.2 12 23.2
23-04-2019 6.4 (01:40) -0.7 (21:40) 2.9 15.56 (20:40) 8.89 (03:50) 9 0.4 0.6 6.6 1.4
22-04-2019 8.6 (12:20) 2.2 (00:00) 5.4 10.56 (23:30) 7.5 (04:30) 0 0 0 0 0
21-04-2019 5.1 (01:00) 1.4 (00:00) 3.2 8.89 (01:00) 6.39 (01:00) 2 1.8 0 0.2 0
20-04-2019 11.7 (15:20) 4.4 (00:00) 8 14.44 (05:10) 10.83 (05:10) 1.6 0 0 0 1.6
19-04-2019 7.8 (19:30) 2.9 (00:00) 5.4 28.89 (20:30) 13.61 (18:10) 13.6 8.4 4.8 0 0.4
18-04-2019 9.9 (02:00) 3 (00:00) 6.4 16.94 (04:10) 8.06 (22:40) 60.6 8.4 22.2 9 21
17-04-2019 13.8 (18:00) 6.8 (00:00) 10.3 19.17 (05:20) 12.78 (04:30) 0.2 0 0 0 0.2
16-04-2019 11.4 (16:50) 1.3 (00:00) 6.3 15 (22:30) 11.39 (23:30) 0.8 0.8 0 0 0
15-04-2019 14.2 (16:30) 4.9 (00:00) 9.5 20.56 (17:10) 9.44 (06:30) 1 0 0 0.8 0.2
14-04-2019 11.9 (16:00) 6 (00:00) 8.9 9.44 (22:10) 7.22 (22:20) 0 0 0 0 0
13-04-2019 12 (17:40) 0.7 (00:00) 6.3 7.22 (18:00) 4.17 (04:00) 0 0 0 0 0
12-04-2019 6.5 (15:50) -1.9 (-00:0) 2.3 7.22 (00:20) 4.44 (23:20) 0.2 0.2 0 0 0
11-04-2019 0.7 (18:30) -1.8 (-00:0) -0.5 9.72 (07:20) 3.89 (18:30) 4.8 1.6 0 0.8 2.4
10-04-2019 2.5 (15:40) -1.2 (-00:0) 0.6 8.33 (16:20) 4.17 (16:20) 4.4 0.6 2 1.6 0.2
09-04-2019 2.8 (14:30) -1.1 (-00:0) 0.8 13.89 (06:10) 7.78 (03:00) 3 0 0 0 3
08-04-2019 6 (17:10) 2 (00:00) 4 16.94 (03:30) 7.22 (09:10) 1.2 0 1 0.2 0
07-04-2019 4 (14:40) -3.2 (-00:0) 0.4 15.83 (23:20) 9.44 (20:40) 0 0 0 0 0
06-04-2019 -0.3 (17:30) -3.2 (-00:0) -1.8 19.44 (10:10) 9.72 (10:10) 4.4 0.2 0.4 1 2.8
05-04-2019 1 (15:10) -2.2 (-00:0) -0.6 18.89 (10:30) 10.28 (06:40) 6.6 0 0 6.6 0
04-04-2019 2.5 (17:40) -6.5 (-00:0) -2 18.33 (21:50) 8.61 (22:10) 0.2 0 0 0.2 0
03-04-2019 2.1 (00:00) -5.7 (-00:0) -1.8 13.33 (15:50) 4.72 (07:40) 6.2 0.2 1 4.6 0.4
02-04-2019 7.1 (18:00) 1.1 (00:00) 4.1 7.22 (17:10) 4.17 (17:10) 0 0 0 0 0
01-04-2019 5.1 (16:40) 0.7 (00:00) 2.9 10.28 (04:10) 7.5 (03:40) 0.4 0.4 0 0 0
31-03-2019 7.9 (14:10) 2.2 (00:00) 5.1 9.44 (21:20) 7.22 (04:30) 0 0 0 0 0
30-03-2019 8.4 (12:10) 1.5 (00:00) 4.9 13.33 (01:50) 10.83 (01:50) 0 0 0 0 0
29-03-2019 10.8 (15:30) 1.9 (00:00) 6.4 12.5 (23:40) 9.72 (23:40) 0 0 0 0 0
28-03-2019 8.9 (16:20) 1 (00:00) 4.9 11.94 (02:30) 8.61 (02:40) 0 0 0 0 0
27-03-2019 7.4 (15:30) -1.8 (-00:0) 2.8 18.33 (03:50) 9.17 (04:30) 0 0 0 0 0

Gráficas

Temp. máximas Temp. mínimas Temp. medias Precipitaciones Rachas de viento máximas Velocidades máximas media en intervalos de 10 minutos

Datos horarios

Fecha y hora oficial Temperatura (ºC) Velocidad del viento (km/h) Dirección del viento Racha (km/h) Dirección de racha Precipitación (mm) Presión (hPa) Tendencia (hPa) Humedad (%)
2019-04-25 23:00:00 0.1 30 Norte 72 Norte 0 -- -- 92
2019-04-25 22:00:00 -0.1 30 Norte 67 Noroeste 0.2 -- -- 97
2019-04-25 21:00:00 0 25 Norte 105 Norte 0 -- -- 94
2019-04-25 20:00:00 1.2 25 Norte 69 Sudeste 0 -- -- 90
2019-04-25 19:00:00 1.5 26 Sudeste 67 Sur 0 -- -- 84
2019-04-25 18:00:00 1.4 32 Sudeste 70 Este 1 -- -- 80
2019-04-25 17:00:00 2.2 22 Sudeste 80 Sur 0.2 -- -- 76
2019-04-25 16:00:00 1.9 31 Sudeste 73 Sur 0 -- -- 73
2019-04-25 15:00:00 1.5 29 Sudeste 80 Sudeste 0 -- -- 73
2019-04-25 14:00:00 0.9 27 Este 80 Sudeste 0.4 -- -- 73
2019-04-25 13:00:00 0.4 33 Sudeste 69 Sudeste 0.6 -- -- 82
2019-04-25 12:00:00 0 24 Sudeste 75 Sudeste 0.2 -- -- 79
2019-04-25 11:00:00 -0.5 19 Este 76 Sur 0.2 -- -- 85
2019-04-25 10:00:00 -0.9 25 Este 82 Sudeste 1.4 -- -- 86
2019-04-25 09:00:00 -0.9 16 Norte 49 Noroeste 0.8 -- -- 94
2019-04-25 08:00:00 -1.1 17 Este 58 Sudeste 0.6 -- -- 93
2019-04-25 07:00:00 -1.1 23 Norte 61 Norte 0 -- -- 94
2019-04-25 06:00:00 -0.3 21 Norte 66 Noroeste 0.2 -- -- 92
2019-04-25 05:00:00 0.1 27 Norte 78 Noroeste 0 -- -- 92
2019-04-25 04:00:00 0.4 16 Norte 54 Noroeste 0.8 -- -- 97
2019-04-25 03:00:00 1 14 Norte 52 Norte 2.4 -- -- 97
2019-04-25 02:00:00 1.3 16 Nordeste 69 Este 2.8 -- -- 94
2019-04-25 01:00:00 2.2 19 Sudeste 71 Sur 4.2 -- -- 93
2019-04-25 00:00:00 3.1 32 Sudeste 76 Sudeste 2.8 -- -- 92
2019-04-24 23:00:00 2.5 13 Sudeste 71 Noroeste 2.4 -- -- 97
2019-04-24 22:00:00 2.5 23 Noroeste 100 Sur 1.6 -- -- 98
2019-04-24 21:00:00 2.8 26 Norte 76 Norte 4.2 -- -- 93
2019-04-24 20:00:00 2.8 20 Nordeste 71 Sur 7.4 -- -- 95
2019-04-24 19:00:00 4.6 36 Sudeste 77 Sudeste 4.8 -- -- 88
2019-04-24 18:00:00 4.2 27 Sudeste 124 Sur 3.8 -- -- 89
2019-04-24 17:00:00 4.7 58 Sudeste 110 Sudeste 0.8 -- -- 84
2019-04-24 16:00:00 4.3 71 Sudeste 133 Sudeste 2.8 -- -- 83
2019-04-24 15:00:00 2.5 39 Sudeste 117 Sur 1.2 -- -- 89
2019-04-24 14:00:00 1.5 59 Sudeste 117 Sur 1.4 -- -- 93
2019-04-24 13:00:00 0.5 59 Sudeste 113 Sudeste 2 -- -- 91
2019-04-24 12:00:00 0.1 43 Sudeste 78 Sudeste 2.4 -- -- 86
2019-04-24 11:00:00 -0.6 28 Sudeste 70 Sur 2.2 -- -- 85
2019-04-24 10:00:00 -1.3 26 Sudeste 65 Sur 0.6 -- -- 89
2019-04-24 09:00:00 -0.9 34 Sur 64 Sur 0 -- -- 79
2019-04-24 08:00:00 -1.6 31 Sur 66 Sudeste 0 -- -- 87
2019-04-24 07:00:00 -1.6 34 Sur 68 Sur 0 -- -- 85
2019-04-24 06:00:00 -1.6 23 Sudeste 55 Sur 0 -- -- 85
2019-04-24 05:00:00 -1.4 18 Sudeste 49 Sur 0 -- -- 88
2019-04-24 04:00:00 -1.3 13 Sudeste 57 Sur 0.2 -- -- 90
2019-04-24 03:00:00 -0.8 22 Sudeste 55 Sur 0 -- -- 90
2019-04-24 02:00:00 -0.7 10 Sudeste 41 Norte 0 -- -- 93
2019-04-24 01:00:00 -0.6 12 Norte 39 Norte 0.2 -- -- 95
2019-04-24 00:00:00 -0.5 17 Norte 35 Norte 0 -- -- 95
2019-04-23 23:00:00 -0.3 15 Norte 41 Norte 0 -- -- 93
2019-04-23 22:00:00 -0.2 14 Sur 38 Sur 0.6 -- -- 95
2019-04-23 21:00:00 -0.3 14 Este 56 Sur 0.8 -- -- 94
2019-04-23 20:00:00 2.3 20 Norte 44 Norte 0 -- -- 77
2019-04-23 19:00:00 2.3 7 Norte 54 Sur 0 -- -- 84
2019-04-23 18:00:00 1.3 18 Sudeste 40 Sudeste 0.4 -- -- 83
2019-04-23 17:00:00 2.7 12 Sur 30 Sudoeste 1.8 -- -- 82
2019-04-23 16:00:00 3.4 15 Sur 49 Sudoeste 0.2 -- -- 85
2019-04-23 15:00:00 2.7 17 Sur 46 Sur 1.6 -- -- 83
2019-04-23 14:00:00 4.2 17 Sudeste 41 Sudeste 2.6 -- -- 81
2019-04-23 13:00:00 4.1 18 Este 34 Este 0 -- -- 92
2019-04-23 12:00:00 4.3 7 Oeste 26 Oeste 0 -- -- 89
2019-04-23 11:00:00 4.1 11 Sudeste 32 Sur 0 -- -- 88
2019-04-23 10:00:00 4.2 13 Sur 32 Sudeste 0 -- -- 87
2019-04-23 09:00:00 4.7 17 Sur 46 Sur 0 -- -- 81
2019-04-23 08:00:00 4.8 21 Sudeste 47 Sudeste 0 -- -- 80
2019-04-23 07:00:00 4.8 22 Sur 41 Sur 0.6 -- -- 82
2019-04-23 06:00:00 4.6 15 Sur 31 Sudoeste 0.4 -- -- 87
2019-04-23 05:00:00 5.5 19 Sudeste 33 Sur 0 -- -- 81
2019-04-23 04:00:00 5.8 26 Sur 44 Sur 0 -- -- 78
2019-04-23 03:00:00 6.2 20 Sur 36 Sur 0 -- -- 74
2019-04-23 02:00:00 6.3 23 Sur 34 Sudeste 0 -- -- 72
2019-04-23 01:00:00 5.9 24 Sudeste 34 Sur 0 -- -- 77
2019-04-23 00:00:00 5.4 23 Sudeste 38 Sudeste 0 -- -- 81
2019-04-22 23:00:00 6.8 15 Sudeste 31 Sur 0 -- -- 63
2019-04-22 22:00:00 6.7 19 Sur 36 Sur 0 -- -- 66
2019-04-22 21:00:00 6.7 7 Sur 24 Sur 0 -- -- 70
2019-04-22 20:00:00 7 11 Sudeste 32 Sur 0 -- -- 71
2019-04-22 19:00:00 7.2 7 Sudeste 30 Sur 0 -- -- 72
2019-04-22 18:00:00 7.6 9 Sudeste 24 Sudeste 0 -- -- 71
2019-04-22 17:00:00 8.1 8 Sudeste 19 Sur 0 -- -- 67
2019-04-22 16:00:00 7.9 8 Sur 23 Sudoeste 0 -- -- 70
2019-04-22 15:00:00 7.4 8 Noroeste 15 Norte 0 -- -- 77
2019-04-22 14:00:00 7.8 8 Noroeste 14 Norte 0 -- -- 77
2019-04-22 13:00:00 7.5 9 Noroeste 17 Noroeste 0 -- -- 74
2019-04-22 12:00:00 8.1 7 Norte 20 Sudeste 0 -- -- 70
2019-04-22 11:00:00 6.5 6 Noroeste 26 Sudeste 0 -- -- 73
2019-04-22 10:00:00 4.8 3 Norte 9 Norte 0 -- -- 79
2019-04-22 09:00:00 3.9 3 Nordeste 13 Sudeste 0 -- -- 84
2019-04-22 08:00:00 3.6 4 Oeste 23 Sur 0 -- -- 83
2019-04-22 07:00:00 3.1 4 Sudeste 7 Sudeste 0 -- -- 88
2019-04-22 06:00:00 2.8 3 Sudeste 27 Sur 0 -- -- 90
2019-04-22 05:00:00 3.5 18 Sur 34 Sur 0 -- -- 83
2019-04-22 04:00:00 3.2 22 Sudeste 29 Sudeste 0 -- -- 86
2019-04-22 03:00:00 3.4 21 Sur 27 Sur 0 -- -- 84
2019-04-22 02:00:00 3 4 Sudeste 13 Sur 0 -- -- 87
2019-04-22 01:00:00 3.3 11 Sur 15 Sur 0 -- -- 85
2019-04-22 00:00:00 2.9 10 Sudeste 18 Sur 0 -- -- 89
2019-04-21 23:00:00 3.1 13 Sur 20 Sur 0 -- -- 88
2019-04-21 22:00:00 3 5 Sudeste 25 Sudeste 0 -- -- 93
2019-04-21 21:00:00 3.2 10 Sur 24 Sur 0 -- -- 91
2019-04-21 20:00:00 3.2 14 Sur 26 Sur 0 -- -- 95
2019-04-21 19:00:00 3.2 6 Sudeste 19 Sur 0 -- -- 93
2019-04-21 18:00:00 3.1 9 Sur 21 Sur 0 -- -- 93
2019-04-21 17:00:00 2.8 13 Sur 22 Sur 0 -- -- 97
2019-04-21 16:00:00 1.7 13 Sur 25 Sur 0 -- -- 99
2019-04-21 15:00:00 1.9 10 Sur 17 Sur 0.2 -- -- 100
2019-04-21 14:00:00 2 5 Oeste 16 Sur 0 -- -- 100
2019-04-21 13:00:00 1.8 4 Noroeste 13 Sur 0 -- -- 100
2019-04-21 12:00:00 1.7 4 Oeste 18 Noroeste 0 -- -- 100
2019-04-21 11:00:00 1.6 9 Noroeste 22 Sudeste 0 -- -- 100
2019-04-21 10:00:00 1.6 10 Sur 29 Sur 0 -- -- 100
2019-04-21 09:00:00 1.6 5 Oeste 31 Sur 0 -- -- 100
2019-04-21 08:00:00 1.5 12 Sudoeste 30 Sur 0 -- -- 100
2019-04-21 07:00:00 2 13 Sur 30 Sudoeste 0 -- -- 95
2019-04-21 06:00:00 2.3 9 Sur 26 Sudeste 0 -- -- 94
2019-04-21 05:00:00 2.8 8 Oeste 21 Noroeste 0 -- -- 94
2019-04-21 04:00:00 2.8 6 Noroeste 32 Sur 0 -- -- 99
2019-04-21 03:00:00 4 12 Sur 31 Sur 0 -- -- 86
2019-04-21 02:00:00 4.3 15 Sur 28 Sur 0 -- -- 89
2019-04-21 01:00:00 5.1 23 Sur 32 Sur 1.8 -- -- 84
2019-04-21 00:00:00 4.4 6 Noroeste 18 Noroeste 1.6 -- -- 100
2019-04-20 23:00:00 5 4 Noroeste 9 Noroeste 0 -- -- 99
2019-04-20 22:00:00 5.7 2 Noroeste 25 Norte 0 -- -- 94
2019-04-20 21:00:00 6.9 9 Noroeste 22 Noroeste 0 -- -- 90
2019-04-20 20:00:00 9.9 9 Noroeste 18 Sur 0 -- -- 68
2019-04-20 19:00:00 9.1 6 Norte 29 Noroeste 0 -- -- 71
2019-04-20 18:00:00 9.7 11 Sur 25 Este 0 -- -- 66
2019-04-20 17:00:00 10.5 9 Sur 24 Sur 0 -- -- 66
2019-04-20 16:00:00 11.1 12 Noroeste 28 Noroeste 0 -- -- 58
2019-04-20 15:00:00 11.1 10 Sur 24 Sur 0 -- -- 54
2019-04-20 14:00:00 10 12 Norte 26 Sur 0 -- -- 67
2019-04-20 13:00:00 10 9 Sur 27 Sudeste 0 -- -- 56
2019-04-20 12:00:00 8.3 15 Sur 33 Sur 0 -- -- 55
2019-04-20 11:00:00 7.6 19 Sur 34 Sur 0 -- -- 61
2019-04-20 10:00:00 6.8 21 Sur 44 Sur 0 -- -- 59
2019-04-20 09:00:00 6.8 38 Sur 50 Sur 0 -- -- 49
2019-04-20 08:00:00 7.2 32 Sur 46 Sur 0 -- -- 44
2019-04-20 07:00:00 7.1 31 Sur 48 Sur 0 -- -- 47
2019-04-20 06:00:00 7.1 33 Sur 52 Sur 0 -- -- 53
2019-04-20 05:00:00 6.8 37 Sur 49 Sur 0 -- -- 58
2019-04-20 04:00:00 7.2 30 Sur 45 Sur 0 -- -- 58
2019-04-20 03:00:00 7.1 28 Sur 40 Sur 0 -- -- 59
2019-04-20 02:00:00 7.2 28 Sur 41 Sur 0 -- -- 58
2019-04-20 01:00:00 6.9 27 Sur 44 Sur 0 -- -- 64
2019-04-20 00:00:00 6.9 34 Sur 45 Sur 0 -- -- 68
2019-04-19 23:00:00 6.9 23 Sur 49 Sudeste 0 -- -- 70
2019-04-19 22:00:00 7.3 30 Sur 80 Sur 0 -- -- 65
2019-04-19 21:00:00 7.4 40 Sur 104 Sudeste 0.2 -- -- 63
2019-04-19 20:00:00 7.5 43 Sur 75 Sur 0.2 -- -- 67
2019-04-19 19:00:00 7.3 46 Sur 76 Sudeste 0 -- -- 71
2019-04-19 18:00:00 7.1 46 Sur 69 Sudeste 0 -- -- 72
2019-04-19 17:00:00 7.1 42 Sur 61 Sur 0 -- -- 76
2019-04-19 16:00:00 6.9 39 Sur 60 Sudeste 0 -- -- 78
2019-04-19 15:00:00 6.6 36 Sur 59 Sudeste 0 -- -- 81
2019-04-19 14:00:00 5.4 31 Sur 54 Sur 0 -- -- 90
2019-04-19 13:00:00 4.9 34 Sudeste 58 Sudeste 0 -- -- 87
2019-04-19 12:00:00 4.2 32 Sudeste 78 Sudeste 0.6 -- -- 92
2019-04-19 11:00:00 3.9 30 Sudeste 57 Sudeste 2.2 -- -- 95
2019-04-19 10:00:00 3.7 24 Sudeste 46 Este 0.8 -- -- 93
2019-04-19 09:00:00 3.8 18 Sudeste 50 Sudeste 0 -- -- 90
2019-04-19 08:00:00 3.4 28 Sudeste 67 Este 0.2 -- -- 89
2019-04-19 07:00:00 3.5 31 Sudeste 60 Este 1 -- -- 89
2019-04-19 06:00:00 3.2 35 Sudeste 57 Sudeste 1 -- -- 91
2019-04-19 05:00:00 3.3 32 Sudeste 51 Sudeste 0.6 -- -- 93
2019-04-19 04:00:00 3.2 32 Sudeste 53 Sudeste 2 -- -- 93
2019-04-19 03:00:00 3.1 28 Sudeste 50 Este 2.8 -- -- 94
2019-04-19 02:00:00 3.1 19 Sudeste 43 Sudeste 1 -- -- 97
2019-04-19 01:00:00 3.3 23 Sudeste 51 Sudeste 1 -- -- 96
2019-04-19 00:00:00 3.6 26 Sudeste 44 Sur 3.2 -- -- 96
2019-04-18 23:00:00 3.5 27 Sudeste 57 Sudeste 4 -- -- 94
2019-04-18 22:00:00 3.6 23 Sur 51 Sudeste 2.6 -- -- 95
2019-04-18 21:00:00 3.6 26 Sur 36 Sudeste 4.2 -- -- 91
2019-04-18 20:00:00 3.2 17 Sudeste 28 Sudeste 5.6 -- -- 91
2019-04-18 19:00:00 3.8 16 Sudeste 31 Este 1.4 -- -- 91
2019-04-18 18:00:00 4 18 Sudeste 35 Sudeste 1.8 -- -- 90
2019-04-18 17:00:00 4.1 23 Sudeste 40 Sudeste 3.8 -- -- 90
2019-04-18 16:00:00 4.9 15 Sudeste 30 Sudeste 0 -- -- 90
2019-04-18 15:00:00 5 17 Sudeste 39 Sudeste 0 -- -- 94
2019-04-18 14:00:00 4.6 10 Sudeste 24 Sudeste 0 -- -- 97
2019-04-18 13:00:00 4.6 9 Sudeste 30 Sudeste 3.4 -- -- 91
2019-04-18 12:00:00 4.3 19 Sudeste 38 Sur 2.2 -- -- 89
2019-04-18 11:00:00 3.6 19 Sudeste 45 Sudeste 4.4 -- -- 88
2019-04-18 10:00:00 3.4 13 Sudeste 30 Este 4.6 -- -- 89
2019-04-18 09:00:00 4.2 7 Este 18 Este 3.6 -- -- 96
2019-04-18 08:00:00 4.4 8 Oeste 28 Oeste 4 -- -- 96
2019-04-18 07:00:00 5.7 13 Oeste 38 Sur 3.4 -- -- 88
2019-04-18 06:00:00 6.2 16 Norte 61 Sur 2.8 -- -- 89
2019-04-18 05:00:00 6.6 22 Sur 61 Sur 4.6 -- -- 87
2019-04-18 04:00:00 8.5 12 Sudeste 42 Sur 0.2 -- -- 76
2019-04-18 03:00:00 8.8 8 Sur 37 Sur 0 -- -- 77
2019-04-18 02:00:00 9.9 12 Sur 41 Sur 0 -- -- 71
2019-04-18 01:00:00 8.6 17 Sur 39 Sur 0.8 -- -- 83
2019-04-18 00:00:00 9.8 8 Oeste 23 Este 0.2 -- -- 74
2019-04-17 23:00:00 10.8 12 Este 36 Sudeste 0 -- -- 66
2019-04-17 22:00:00 9.5 5 Sudeste 53 Sudeste 0 -- -- 70
2019-04-17 21:00:00 11.4 19 Sudeste 45 Este 0 -- -- 62
2019-04-17 20:00:00 12.1 15 Sudeste 44 Sur 0 -- -- 58
2019-04-17 19:00:00 12.7 14 Sudeste 50 Sur 0 -- -- 52
2019-04-17 18:00:00 13.8 9 Este 57 Sur 0 -- -- 42
2019-04-17 17:00:00 12.9 22 Sur 64 Sur 0 -- -- 42
2019-04-17 16:00:00 12.5 15 Este 48 Sudeste 0 -- -- 43
2019-04-17 15:00:00 11.4 17 Sur 60 Sur 0 -- -- 51
2019-04-17 14:00:00 11.9 22 Sudeste 55 Sudeste 0 -- -- 43
2019-04-17 13:00:00 11.4 20 Sudeste 55 Este 0 -- -- 43
2019-04-17 12:00:00 10.7 17 Sur 53 Este 0 -- -- 45
2019-04-17 11:00:00 9.8 19 Sudeste 62 Sur 0 -- -- 51
2019-04-17 10:00:00 9.3 15 Sudeste 44 Sur 0 -- -- 52
2019-04-17 09:00:00 8.4 29 Sudeste 48 Sudeste 0 -- -- 60
2019-04-17 08:00:00 7.4 30 Sudeste 42 Sudeste 0 -- -- 65
2019-04-17 07:00:00 7.8 33 Sudeste 51 Sur 0 -- -- 64
2019-04-17 06:00:00 7.9 19 Sudeste 69 Sudeste 0 -- -- 68
2019-04-17 05:00:00 7 41 Sudeste 69 Sudeste 0 -- -- 77
2019-04-17 04:00:00 7.6 21 Sur 51 Sudeste 0 -- -- 68
2019-04-17 03:00:00 8.7 11 Sudeste 32 Sudoeste 0 -- -- 56
2019-04-17 02:00:00 8.4 15 Sudeste 53 Sudeste 0 -- -- 58
2019-04-17 01:00:00 8.7 35 Sudeste 58 Sudeste 0 -- -- 54
2019-04-17 00:00:00 8.6 38 Sudeste 51 Sudeste 0 -- -- 59
2019-04-16 23:00:00 8.5 32 Sudeste 54 Sur 0 -- -- 61
2019-04-16 22:00:00 9.3 23 Sur 50 Sur 0 -- -- 58
2019-04-16 21:00:00 9.3 9 Sudeste 39 Sudoeste 0 -- -- 52
2019-04-16 20:00:00 9.7 11 Sur 24 Sudeste 0 -- -- 45
2019-04-16 19:00:00 10.4 15 Sur 28 Sur 0 -- -- 43
2019-04-16 18:00:00 10.9 13 Sur 25 Sur 0 -- -- 45
2019-04-16 17:00:00 10.8 11 Noroeste 18 Noroeste 0 -- -- 71
2019-04-16 16:00:00 10.2 10 Noroeste 16 Noroeste 0 -- -- 75
2019-04-16 15:00:00 9.6 4 Oeste 14 Noroeste 0 -- -- 78
2019-04-16 14:00:00 8.3 8 Noroeste 15 Noroeste 0 -- -- 83
2019-04-16 13:00:00 7.7 8 Noroeste 13 Noroeste 0 -- -- 79
2019-04-16 12:00:00 6.5 4 Noroeste 10 Noroeste 0 -- -- 81
2019-04-16 11:00:00 5.9 2 Sudoeste 14 Norte 0 -- -- 78
2019-04-16 10:00:00 4.4 6 Norte 10 Norte 0 -- -- 79
2019-04-16 09:00:00 3.6 5 Noroeste 17 Oeste 0 -- -- 77
2019-04-16 08:00:00 3.1 4 Sudoeste 22 Oeste 0 -- -- 82
2019-04-16 07:00:00 1.3 3 Nordeste 13 Este 0 -- -- 97
2019-04-16 06:00:00 1.5 2 Este 13 Este 0 -- -- 96
2019-04-16 05:00:00 2 6 Sudeste 10 Sudeste 0 -- -- 100
2019-04-16 04:00:00 2.3 4 Sur 15 Este 0 -- -- 100
2019-04-16 03:00:00 3.1 4 Oeste 12 Noroeste 0.2 -- -- 100
2019-04-16 02:00:00 3.7 6 Noroeste 14 Noroeste 0.6 -- -- 99
2019-04-16 01:00:00 3.7 5 Sudeste 10 Noroeste 0 -- -- 95
2019-04-16 00:00:00 5.1 4 Oeste 14 Noroeste 0 -- -- 72
2019-04-15 23:00:00 5.2 10 Noroeste 35 Norte 0 -- -- 77
2019-04-15 22:00:00 6.3 22 Norte 46 Noroeste 0 -- -- 82
2019-04-15 21:00:00 7 13 Noroeste 31 Norte 0 -- -- 83
2019-04-15 20:00:00 7.6 12 Noroeste 35 Noroeste 0.2 -- -- 88
2019-04-15 19:00:00 8.8 10 Norte 45 Noroeste 0 -- -- 85
2019-04-15 18:00:00 9.5 10 Norte 74 Noroeste 0.8 -- -- 83
2019-04-15 17:00:00 13.2 33 Sudeste 72 Sur 0 -- -- 57
2019-04-15 16:00:00 13.8 24 Sudeste 45 Sudeste 0 -- -- 54
2019-04-15 15:00:00 12.5 18 Sudeste 45 Sur 0 -- -- 61
2019-04-15 14:00:00 11.9 16 Sudeste 46 Sur 0 -- -- 67
2019-04-15 13:00:00 11.8 13 Sur 44 Sur 0 -- -- 70
2019-04-15 12:00:00 12 9 Norte 36 Sur 0 -- -- 69
2019-04-15 11:00:00 11.3 14 Sudeste 31 Este 0 -- -- 72
2019-04-15 10:00:00 9.6 15 Sur 42 Sur 0 -- -- 74
2019-04-15 09:00:00 9.2 30 Sur 46 Sur 0 -- -- 76
2019-04-15 08:00:00 9.9 28 Sudeste 40 Sur 0 -- -- 76
2019-04-15 07:00:00 9.8 29 Sur 45 Sur 0 -- -- 71
2019-04-15 06:00:00 9.7 31 Sur 41 Sur 0 -- -- 71
2019-04-15 05:00:00 9.6 28 Sur 38 Sur 0 -- -- 76
2019-04-15 04:00:00 9.7 28 Sur 39 Sur 0 -- -- 71
2019-04-15 03:00:00 8.4 22 Sur 35 Sur 0 -- -- 79
2019-04-15 02:00:00 8.4 16 Sur 30 Sur 0 -- -- 72
2019-04-15 01:00:00 8.1 23 Sur 31 Sudeste 0 -- -- 77
2019-04-15 00:00:00 6.6 14 Sur 18 Sur 0 -- -- 83
2019-04-14 23:00:00 8.4 6 Sudeste 34 Sur 0 -- -- 76
2019-04-14 22:00:00 9 25 Sudeste 31 Sur 0 -- -- 79
2019-04-14 21:00:00 7.3 14 Sur 21 Sur 0 -- -- 84
2019-04-14 20:00:00 6.3 15 Sur 19 Sur 0 -- -- 84
2019-04-14 19:00:00 10.7 4 Sudoeste 14 Noroeste 0 -- -- 71
2019-04-14 18:00:00 11.3 9 Noroeste 22 Noroeste 0 -- -- 73
2019-04-14 17:00:00 11.2 7 Noroeste 15 Oeste 0 -- -- 71
2019-04-14 16:00:00 11.9 8 Noroeste 20 Noroeste 0 -- -- 71
2019-04-14 15:00:00 11.2 5 Sudoeste 16 Noroeste 0 -- -- 71
2019-04-14 14:00:00 11.1 8 Noroeste 19 Noroeste 0 -- -- 70
2019-04-14 13:00:00 10.6 9 Noroeste 22 Noroeste 0 -- -- 74
2019-04-14 12:00:00 9.4 12 Noroeste 19 Noroeste 0 -- -- 75
2019-04-14 11:00:00 9.2 9 Noroeste 17 Noroeste 0 -- -- 72
2019-04-14 10:00:00 8.6 11 Noroeste 18 Noroeste 0 -- -- 72
2019-04-14 09:00:00 7.4 5 Noroeste 14 Noroeste 0 -- -- 71
2019-04-14 08:00:00 6.1 4 Sur 14 Oeste 0 -- -- 75
2019-04-14 07:00:00 8.1 9 Noroeste 23 Oeste 0 -- -- 68
2019-04-14 06:00:00 7.6 7 Noroeste 19 Oeste 0 -- -- 70
2019-04-14 05:00:00 7.3 5 Oeste 23 Sur 0 -- -- 70
2019-04-14 04:00:00 7.9 11 Oeste 24 Noroeste 0 -- -- 66
2019-04-14 03:00:00 7.8 9 Oeste 23 Noroeste 0 -- -- 63
2019-04-14 02:00:00 8.3 8 Noroeste 24 Noroeste 0 -- -- 53
2019-04-14 01:00:00 8.1 6 Noroeste 18 Oeste 0 -- -- 54
2019-04-14 00:00:00 7.7 7 Oeste 22 Sudoeste 0 -- -- 52
2019-04-13 23:00:00 7.5 12 Sudoeste 18 Sudoeste 0 -- -- 53
2019-04-13 22:00:00 7.8 9 Noroeste 22 Noroeste 0 -- -- 53
2019-04-13 21:00:00 7.7 5 Sudoeste 18 Noroeste 0 -- -- 44
2019-04-13 20:00:00 10.4 10 Noroeste 24 Oeste 0 -- -- 32
2019-04-13 19:00:00 11.3 13 Noroeste 23 Noroeste 0 -- -- 29
2019-04-13 18:00:00 11.8 12 Noroeste 26 Noroeste 0 -- -- 29
2019-04-13 17:00:00 11.2 11 Noroeste 22 Noroeste 0 -- -- 27
2019-04-13 16:00:00 11.5 6 Sudoeste 20 Noroeste 0 -- -- 28
2019-04-13 15:00:00 10.7 10 Noroeste 20 Noroeste 0 -- -- 18
2019-04-13 14:00:00 9.7 6 Sudoeste 15 Sur 0 -- -- 28
2019-04-13 13:00:00 7.4 6 Sur 16 Sur 0 -- -- 20
2019-04-13 12:00:00 7.2 10 Sur 18 Sudeste 0 -- -- 32
2019-04-13 11:00:00 4.8 12 Sudeste 15 Sudeste 0 -- -- 23
2019-04-13 10:00:00 3.6 3 Sudeste 12 Sur 0 -- -- 22
2019-04-13 09:00:00 2 4 Sudeste 15 Este 0 -- -- 18
2019-04-13 08:00:00 1.3 13 Este 18 Este 0 -- -- 18
2019-04-13 07:00:00 0.8 14 Este 19 Este 0 -- -- 18
2019-04-13 06:00:00 0.8 15 Este 21 Este 0 -- -- 18
2019-04-13 05:00:00 1.3 14 Este 19 Este 0 -- -- 19
2019-04-13 04:00:00 0.9 15 Sudeste 18 Este 0 -- -- 21
2019-04-13 03:00:00 2.2 13 Sudeste 18 Este 0 -- -- 19
2019-04-13 02:00:00 2.8 11 Sudeste 19 Este 0 -- -- 18
2019-04-13 01:00:00 2.1 15 Sudeste 19 Este 0 -- -- 18
2019-04-13 00:00:00 1.3 13 Este 21 Este 0 -- -- 25
2019-04-12 23:00:00 1.2 13 Este 22 Este 0 -- -- 26
2019-04-12 22:00:00 0.9 8 Este 13 Este 0 -- -- 52
2019-04-12 21:00:00 2 6 Sudeste 10 Sudeste 0 -- -- 83
2019-04-12 20:00:00 4.8 6 Noroeste 16 Noroeste 0 -- -- 74
2019-04-12 19:00:00 5.6 9 Noroeste 17 Noroeste 0 -- -- 66
2019-04-12 18:00:00 6.2 6 Noroeste 17 Noroeste 0 -- -- 65
2019-04-12 17:00:00 6 9 Noroeste 17 Noroeste 0 -- -- 71
2019-04-12 16:00:00 6.3 4 Oeste 14 Noroeste 0 -- -- 69
2019-04-12 15:00:00 4.2 9 Noroeste 19 Noroeste 0 -- -- 77
2019-04-12 14:00:00 2.7 8 Noroeste 16 Norte 0 -- -- 86
2019-04-12 13:00:00 2.9 6 Sur 21 Sudeste 0 -- -- 87
2019-04-12 12:00:00 1 3 Sudeste 14 Noroeste 0 -- -- 98
2019-04-12 11:00:00 -0.4 4 Noroeste 10 Sur 0 -- -- 98
2019-04-12 10:00:00 -0.8 5 Noroeste 15 Noroeste 0 -- -- 99
2019-04-12 09:00:00 -1.2 6 Oeste 23 Noroeste 0 -- -- 99
2019-04-12 08:00:00 -1.5 5 Noroeste 15 Norte 0 -- -- 100
2019-04-12 07:00:00 -1.8 2 Sudeste 12 Sur 0 -- -- 100
2019-04-12 06:00:00 -1.7 9 Sudeste 16 Sudeste 0 -- -- 100
2019-04-12 05:00:00 -1.8 5 Oeste 16 Oeste 0 -- -- 100
2019-04-12 04:00:00 -1.5 4 Noroeste 13 Noroeste 0 -- -- 100
2019-04-12 03:00:00 -1.1 8 Noroeste 18 Oeste 0 -- -- 100
2019-04-12 02:00:00 -0.8 5 Norte 15 Oeste 0 -- -- 100
2019-04-12 01:00:00 -0.9 6 Norte 26 Norte 0.2 -- -- 100
2019-04-12 00:00:00 -0.5 7 Noroeste 25 Noroeste 0.4 -- -- 100
2019-04-11 23:00:00 -0.2 9 Noroeste 21 Noroeste 0.4 -- -- 100
2019-04-11 22:00:00 0 14 Norte 27 Noroeste 0.2 -- -- 100
2019-04-11 21:00:00 0 10 Noroeste 25 Noroeste 0.6 -- -- 100
2019-04-11 20:00:00 0.3 12 Noroeste 23 Noroeste 0 -- -- 100
2019-04-11 19:00:00 0.2 14 Noroeste 29 Noroeste 0.8 -- -- 100
2019-04-11 18:00:00 0.5 10 Noroeste 25 Noroeste 0.8 -- -- 100
2019-04-11 17:00:00 0.5 13 Noroeste 26 Noroeste 0 -- -- 100
2019-04-11 16:00:00 0.4 11 Noroeste 26 Noroeste 0 -- -- 100
2019-04-11 15:00:00 0.2 11 Noroeste 23 Noroeste 0 -- -- 100
2019-04-11 14:00:00 -0.1 12 Noroeste 23 Noroeste 0 -- -- 100
2019-04-11 13:00:00 -0.4 12 Noroeste 26 Noroeste 0 -- -- 100
2019-04-11 12:00:00 -0.8 9 Noroeste 23 Noroeste 0 -- -- 100
2019-04-11 11:00:00 -1.1 6 Noroeste 27 Noroeste 0 -- -- 100
2019-04-11 10:00:00 -1.4 11 Noroeste 22 Oeste 0 -- -- 100
2019-04-11 09:00:00 -1.5 8 Noroeste 18 Noroeste 0 -- -- 100
2019-04-11 08:00:00 -1.6 9 Noroeste 35 Noroeste 0 -- -- 100
2019-04-11 07:00:00 -1.6 11 Noroeste 30 Oeste 0 -- -- 100
2019-04-11 06:00:00 -1.3 6 Noroeste 24 Noroeste 0 -- -- 100
2019-04-11 05:00:00 -1.5 8 Noroeste 19 Noroeste 0 -- -- 100
2019-04-11 04:00:00 -1.5 3 Noroeste 14 Noroeste 0 -- -- 100
2019-04-11 03:00:00 -0.8 8 Norte 19 Noroeste 0.8 -- -- 100
2019-04-11 02:00:00 -0.7 8 Noroeste 22 Noroeste 0.4 -- -- 100
2019-04-11 01:00:00 -0.7 7 Norte 20 Noroeste 0.4 -- -- 100
2019-04-11 00:00:00 -0.7 9 Norte 21 Norte 0 -- -- 100
2019-04-10 23:00:00 -0.6 12 Noroeste 29 Noroeste 0 -- -- 100
2019-04-10 22:00:00 -0.2 11 Noroeste 24 Noroeste 0.2 -- -- 100
2019-04-10 21:00:00 -0.2 11 Norte 26 Noroeste 0 -- -- 100
2019-04-10 20:00:00 -0.1 9 Noroeste 20 Noroeste 0 -- -- 100
2019-04-10 19:00:00 -0.1 7 Noroeste 18 Oeste 0 -- -- 100
2019-04-10 18:00:00 -0.1 5 Noroeste 15 Noroeste 0.6 -- -- 100
2019-04-10 17:00:00 -0.4 8 Noroeste 30 Noroeste 0.2 -- -- 100
2019-04-10 16:00:00 2 7 Oeste 18 Oeste 0 -- -- 94
2019-04-10 15:00:00 0.8 5 Noroeste 11 Noroeste 0.2 -- -- 98
2019-04-10 14:00:00 0.5 2 Oeste 10 Oeste 0 -- -- 98
2019-04-10 13:00:00 -0.3 4 Noroeste 12 Noroeste 0.6 -- -- 100
2019-04-10 12:00:00 -0.6 5 Noroeste 10 Noroeste 1.2 -- -- 100
2019-04-10 11:00:00 -0.9 6 Noroeste 15 Noroeste 0.4 -- -- 100
2019-04-10 10:00:00 -0.9 4 Noroeste 9 Noroeste 0 -- -- 100
2019-04-10 09:00:00 -1 5 Noroeste 11 Noroeste 0.2 -- -- 100
2019-04-10 08:00:00 -1.1 7 Noroeste 12 Norte 0.2 -- -- 100
2019-04-10 07:00:00 -1.1 5 Noroeste 10 Noroeste 0 -- -- 100
2019-04-10 06:00:00 -1.1 4 Noroeste 13 Oeste 0 -- -- 100
2019-04-10 05:00:00 -1.2 2 Noroeste 15 Noroeste 0 -- -- 100
2019-04-10 04:00:00 -0.7 5 Oeste 18 Noroeste 0 -- -- 99
2019-04-10 03:00:00 -0.4 7 Noroeste 17 Norte 0 -- -- 100
2019-04-10 02:00:00 -0.3 6 Noroeste 16 Noroeste 0 -- -- 100
2019-04-10 01:00:00 -0.5 5 Sur 12 Norte 0.6 -- -- 100
2019-04-10 00:00:00 -0.6 2 Oeste 19 Noroeste 1.4 -- -- 100
2019-04-09 23:00:00 -1 2 Oeste 26 Noroeste 0.2 -- -- 100
2019-04-09 22:00:00 -1.1 4 Noroeste 14 Noroeste 1 -- -- 100
2019-04-09 21:00:00 -1 6 Noroeste 32 Norte 0 -- -- 100
2019-04-09 20:00:00 -0.1 13 Noroeste 35 Noroeste 0.4 -- -- 100
2019-04-09 19:00:00 0.5 13 Noroeste 37 Norte 0 -- -- 98
2019-04-09 18:00:00 1.7 15 Norte 37 Norte 0 -- -- 87
2019-04-09 17:00:00 2.2 10 Norte 31 Noroeste 0 -- -- 82
2019-04-09 16:00:00 1.9 5 Norte 31 Oeste 0 -- -- 88
2019-04-09 15:00:00 2 10 Norte 28 Sudeste 0 -- -- 88
2019-04-09 14:00:00 1.9 9 Sudoeste 29 Noroeste 0 -- -- 82
2019-04-09 13:00:00 1.7 17 Norte 35 Norte 0 -- -- 83
2019-04-09 12:00:00 1.1 20 Sudeste 46 Sur 0 -- -- 84
2019-04-09 11:00:00 0.6 9 Norte 41 Sur 0 -- -- 91
2019-04-09 10:00:00 0.1 13 Nordeste 40 Norte 0 -- -- 90
2019-04-09 09:00:00 0 9 Nordeste 48 Noroeste 0 -- -- 88
2019-04-09 08:00:00 -0.3 12 Nordeste 44 Noroeste 0 -- -- 91
2019-04-09 07:00:00 0 15 Norte 50 Norte 0 -- -- 87
2019-04-09 06:00:00 0.1 19 Norte 41 Norte 0 -- -- 85
2019-04-09 05:00:00 0.3 17 Norte 43 Noroeste 0 -- -- 82
2019-04-09 04:00:00 0.4 17 Norte 44 Noroeste 0 -- -- 83
2019-04-09 03:00:00 0.6 28 Norte 49 Norte 0 -- -- 83
2019-04-09 02:00:00 0.9 14 Norte 37 Noroeste 0 -- -- 83
2019-04-09 01:00:00 1.6 9 Norte 29 Noroeste 0 -- -- 80
2019-04-09 00:00:00 2.3 6 Oeste 15 Oeste 0 -- -- 68
2019-04-08 23:00:00 2.7 6 Noroeste 31 Noroeste 0 -- -- 66
2019-04-08 22:00:00 2.9 11 Noroeste 32 Oeste 0 -- -- 65
2019-04-08 21:00:00 3.1 6 Oeste 28 Noroeste 0 -- -- 60
2019-04-08 20:00:00 4.5 12 Noroeste 44 Noroeste 0 -- -- 61
2019-04-08 19:00:00 5.4 22 Norte 48 Noroeste 0 -- -- 60
2019-04-08 18:00:00 4.9 15 Norte 44 Noroeste 0 -- -- 70
2019-04-08 17:00:00 5.2 15 Noroeste 37 Noroeste 0 -- -- 62
2019-04-08 16:00:00 5.8 12 Norte 34 Norte 0 -- -- 65
2019-04-08 15:00:00 5.3 9 Norte 30 Sudoeste 0 -- -- 66
2019-04-08 14:00:00 5.6 19 Norte 48 Noroeste 0 -- -- 64
2019-04-08 13:00:00 5.1 23 Norte 44 Noroeste 0.2 -- -- 71
2019-04-08 12:00:00 3.9 9 Noroeste 39 Noroeste 0 -- -- 78
2019-04-08 11:00:00 2.5 19 Noroeste 49 Norte 0 -- -- 90
2019-04-08 10:00:00 2.9 17 Norte 40 Norte 0 -- -- 96
2019-04-08 09:00:00 2.9 22 Norte 38 Norte 0.2 -- -- 96
2019-04-08 08:00:00 2.6 12 Norte 43 Norte 0.4 -- -- 98
2019-04-08 07:00:00 2.1 12 Norte 35 Sur 0.4 -- -- 100
2019-04-08 06:00:00 2.1 15 Nordeste 41 Norte 0 -- -- 100
2019-04-08 05:00:00 2.3 15 Norte 39 Norte 0 -- -- 97
2019-04-08 04:00:00 3.3 21 Norte 61 Norte 0 -- -- 88
2019-04-08 03:00:00 3.4 19 Norte 42 Norte 0 -- -- 85
2019-04-08 02:00:00 3.2 15 Sudeste 53 Este 0 -- -- 86
2019-04-08 01:00:00 3 21 Este 54 Nordeste 0 -- -- 82
2019-04-08 00:00:00 2.3 15 Nordeste 57 Sur 0 -- -- 80
2019-04-07 23:00:00 2.7 13 Noroeste 55 Sur 0 -- -- 74
2019-04-07 22:00:00 1.8 26 Sur 51 Sur 0 -- -- 75
2019-04-07 21:00:00 1.2 24 Sur 54 Sudeste 0 -- -- 78
2019-04-07 20:00:00 1.6 26 Sur 46 Sur 0 -- -- 69
2019-04-07 19:00:00 1.5 25 Sur 41 Sur 0 -- -- 66
2019-04-07 18:00:00 1.6 22 Sudeste 44 Sudeste 0 -- -- 73
2019-04-07 17:00:00 2.2 6 Sudeste 25 Sur 0 -- -- 66
2019-04-07 16:00:00 2.7 9 Sudoeste 22 Sudoeste 0 -- -- 68
2019-04-07 15:00:00 2.8 5 Sudoeste 16 Oeste 0 -- -- 68
2019-04-07 14:00:00 3.2 6 Sur 18 Oeste 0 -- -- 67
2019-04-07 13:00:00 1.1 6 Oeste 25 Noroeste 0 -- -- 75
2019-04-07 12:00:00 0.6 12 Noroeste 24 Noroeste 0 -- -- 69
2019-04-07 11:00:00 -0.2 11 Oeste 21 Oeste 0 -- -- 74
2019-04-07 10:00:00 -1.4 12 Oeste 26 Noroeste 0 -- -- 82
2019-04-07 09:00:00 -2.3 9 Oeste 23 Oeste 0 -- -- 88
2019-04-07 08:00:00 -2.1 17 Noroeste 36 Noroeste 0 -- -- 82
2019-04-07 07:00:00 -3.2 8 Oeste 27 Noroeste 0 -- -- 91
2019-04-07 06:00:00 -3.1 10 Noroeste 29 Noroeste 0 -- -- 94
2019-04-07 05:00:00 -2.9 8 Noroeste 26 Noroeste 0 -- -- 93
2019-04-07 04:00:00 -2.7 9 Norte 36 Noroeste 0 -- -- 92
2019-04-07 03:00:00 -2.7 9 Noroeste 29 Norte 0 -- -- 94
2019-04-07 02:00:00 -2.2 12 Noroeste 29 Noroeste 0 -- -- 97
2019-04-07 01:00:00 -2.2 9 Noroeste 30 Noroeste 0 -- -- 99
2019-04-07 00:00:00 -1.9 13 Noroeste 43 Noroeste 0 -- -- 97
2019-04-06 23:00:00 -1.7 15 Noroeste 46 Norte 0.2 -- -- 98
2019-04-06 22:00:00 -1.3 13 Norte 44 Noroeste 0.2 -- -- 93
2019-04-06 21:00:00 -1.2 8 Noroeste 27 Norte 0 -- -- 93
2019-04-06 20:00:00 -1 11 Norte 28 Norte 2 -- -- 98
2019-04-06 19:00:00 -1.5 14 Noroeste 32 Norte 0.4 -- -- 97
2019-04-06 18:00:00 -0.8 13 Norte 46 Noroeste 0.2 -- -- 94
2019-04-06 17:00:00 -0.6 17 Norte 57 Norte 0 -- -- 86
2019-04-06 16:00:00 -1.2 20 Norte 52 Sur 0.6 -- -- 92
2019-04-06 15:00:00 -0.9 14 Norte 57 Sur 0.2 -- -- 87
2019-04-06 14:00:00 -1.4 24 Sudeste 53 Sur 0 -- -- 81
2019-04-06 13:00:00 -1.1 12 Nordeste 59 Sudeste 0 -- -- 73
2019-04-06 12:00:00 -1.9 28 Sudeste 59 Sur 0.2 -- -- 85
2019-04-06 11:00:00 -1.6 14 Sudeste 70 Sur 0 -- -- 85
2019-04-06 10:00:00 -1.8 28 Sudeste 64 Sudeste 0 -- -- 82
2019-04-06 09:00:00 -2.9 16 Este 51 Sur 0 -- -- 87
2019-04-06 08:00:00 -3.1 15 Sudoeste 50 Sudeste 0 -- -- 91
2019-04-06 07:00:00 -2.9 15 Este 41 Sur 0.2 -- -- 92
2019-04-06 06:00:00 -2.8 10 Noroeste 34 Noroeste 0 -- -- 91
2019-04-06 05:00:00 -2.6 9 Norte 33 Sudeste 0.2 -- -- 93
2019-04-06 04:00:00 -2.3 11 Sudeste 34 Sur 0 -- -- 87
2019-04-06 03:00:00 -2.5 6 Sudeste 28 Sur 0 -- -- 90
2019-04-06 02:00:00 -2.4 7 Norte 28 Noroeste 0 -- -- 89
2019-04-06 01:00:00 -2 10 Norte 28 Norte 0 -- -- 86
2019-04-06 00:00:00 -2 8 Sudoeste 25 Oeste 0 -- -- 87
2019-04-05 23:00:00 -2 9 Oeste 31 Noroeste 0 -- -- 86
2019-04-05 22:00:00 -2.2 6 Oeste 23 Oeste 0 -- -- 78
2019-04-05 21:00:00 -2.1 7 Oeste 24 Sudoeste 0 -- -- 87
2019-04-05 20:00:00 -1.5 9 Noroeste 19 Norte 0 -- -- 96
2019-04-05 19:00:00 -1.3 5 Norte 29 Sudeste 0 -- -- 96
2019-04-05 18:00:00 -1.3 11 Norte 22 Norte 2 -- -- 95
2019-04-05 17:00:00 -1.6 5 Sur 21 Noroeste 3 -- -- 98
2019-04-05 16:00:00 0 6 Noroeste 22 Sur 0 -- -- 94
2019-04-05 15:00:00 0.9 4 Oeste 31 Sur 0 -- -- 93
2019-04-05 14:00:00 0.4 12 Sudeste 33 Sur 1.4 -- -- 90
2019-04-05 13:00:00 0.5 10 Sudeste 35 Sudeste 0.2 -- -- 87
2019-04-05 12:00:00 0.7 12 Sudeste 44 Sudeste 0 -- -- 83
2019-04-05 11:00:00 0.2 31 Sudeste 68 Sudeste 0 -- -- 78
2019-04-05 10:00:00 0.1 27 Sudeste 57 Sudeste 0 -- -- 84
2019-04-05 09:00:00 0 17 Sudeste 63 Sudeste 0 -- -- 85
2019-04-05 08:00:00 -0.1 26 Sudeste 64 Sudeste 0 -- -- 84
2019-04-05 07:00:00 -0.8 13 Sur 65 Sur 0 -- -- 91
2019-04-05 06:00:00 -0.3 33 Sudeste 68 Sudeste 0 -- -- 81
2019-04-05 05:00:00 -0.6 26 Sudeste 54 Sur 0 -- -- 82
2019-04-05 04:00:00 -0.3 33 Sudeste 54 Sur 0 -- -- 77
2019-04-05 03:00:00 -0.5 29 Sudeste 59 Sudeste 0 -- -- 78
2019-04-05 02:00:00 -0.3 23 Sudeste 48 Sudeste 0 -- -- 75
2019-04-05 01:00:00 -0.1 21 Sur 48 Sur 0 -- -- 71
2019-04-05 00:00:00 -0.5 28 Sur 49 Sur 0 -- -- 76
2019-04-04 23:00:00 -0.3 24 Sur 55 Sur 0 -- -- 75
2019-04-04 22:00:00 -0.7 28 Sur 66 Sur 0 -- -- 74
2019-04-04 21:00:00 0.3 19 Este 45 Sur 0 -- -- 59
2019-04-04 20:00:00 1.5 20 Sur 58 Sur 0 -- -- 47
2019-04-04 19:00:00 2.3 12 Este 43 Sudeste 0 -- -- 43
2019-04-04 18:00:00 2.4 21 Sudeste 65 Sur 0 -- -- 48
2019-04-04 17:00:00 1.9 14 Sudeste 50 Sur 0.2 -- -- 54
2019-04-04 16:00:00 1.6 12 Sur 32 Sudeste 0 -- -- 60
2019-04-04 15:00:00 0.7 13 Sur 37 Sur 0 -- -- 55
2019-04-04 14:00:00 -0.7 18 Sur 32 Sur 0 -- -- 64
2019-04-04 13:00:00 -0.3 8 Sur 22 Sudoeste 0 -- -- 66
2019-04-04 12:00:00 -0.2 9 Sudoeste 21 Sur 0 -- -- 67
2019-04-04 11:00:00 -2.2 10 Sur 21 Sur 0 -- -- 68
2019-04-04 10:00:00 -3.9 8 Noroeste 20 Noroeste 0 -- -- 81
2019-04-04 09:00:00 -5.2 5 Oeste 23 Noroeste 0 -- -- 89
2019-04-04 08:00:00 -5.2 11 Noroeste 24 Oeste 0 -- -- 88
2019-04-04 07:00:00 -5.2 9 Oeste 19 Noroeste 0 -- -- 90
2019-04-04 06:00:00 -5.2 10 Oeste 22 Noroeste 0 -- -- 91
2019-04-04 05:00:00 -6.5 2 Norte 13 Sudoeste 0 -- -- 94
2019-04-04 04:00:00 -5.8 6 Noroeste 23 Oeste 0 -- -- 94
2019-04-04 03:00:00 -5.8 9 Noroeste 20 Oeste 0 -- -- 95
2019-04-04 02:00:00 -5.8 7 Noroeste 16 Oeste 0 -- -- 96
2019-04-04 01:00:00 -5.6 8 Oeste 16 Noroeste 0 -- -- 96
2019-04-04 00:00:00 -5.5 4 Noroeste 22 Noroeste 0 -- -- 96
2019-04-03 23:00:00 -5.4 8 Noroeste 21 Noroeste 0 -- -- 97
2019-04-03 22:00:00 -4.9 4 Noroeste 13 Noroeste 0 -- -- 98
2019-04-03 21:00:00 -4.5 5 Noroeste 25 Noroeste 0.2 -- -- 98
2019-04-03 20:00:00 -4 13 Noroeste 24 Noroeste 0 -- -- 98
2019-04-03 19:00:00 -3.3 9 Noroeste 22 Noroeste 0.2 -- -- 99
2019-04-03 18:00:00 -3.2 11 Noroeste 22 Noroeste 0.2 -- -- 99
2019-04-03 17:00:00 -3.2 9 Noroeste 24 Noroeste 1.8 -- -- 98
2019-04-03 16:00:00 -3.3 14 Noroeste 48 Noroeste 0.2 -- -- 98
2019-04-03 15:00:00 -2.2 9 Noroeste 17 Noroeste 1 -- -- 99
2019-04-03 14:00:00 -2.3 7 Noroeste 22 Noroeste 1 -- -- 99
2019-04-03 13:00:00 -1.8 13 Noroeste 24 Noroeste 0.4 -- -- 99
2019-04-03 12:00:00 -1.8 7 Noroeste 14 Noroeste 0 -- -- 100
2019-04-03 11:00:00 -1.9 8 Norte 16 Nordeste 1 -- -- 100
2019-04-03 10:00:00 -1.1 5 Noroeste 18 Norte 0 -- -- 100
2019-04-03 09:00:00 -1 9 Noroeste 26 Norte 0 -- -- 100
2019-04-03 08:00:00 -0.3 11 Noroeste 30 Norte 0 -- -- 99
2019-04-03 07:00:00 0 13 Noroeste 37 Noroeste 0 -- -- 100
2019-04-03 06:00:00 0.2 13 Norte 19 Norte 0 -- -- 100
2019-04-03 05:00:00 0.7 5 Norte 15 Noroeste 0 -- -- 100
2019-04-03 04:00:00 0.9 5 Noroeste 12 Noroeste 0 -- -- 100
2019-04-03 03:00:00 1 3 Sudeste 14 Noroeste 0.2 -- -- 100
2019-04-03 02:00:00 1.2 2 Noroeste 9 Norte 0 -- -- 100
2019-04-03 01:00:00 1.4 2 Noroeste 10 Noroeste 0 -- -- 100
2019-04-03 00:00:00 2.1 0 Calma 8 Noroeste 0 -- -- 100
2019-04-02 23:00:00 2.1 2 Sudeste 9 Nordeste 0 -- -- 100
2019-04-02 22:00:00 2.2 4 Sur 8 Noroeste 0 -- -- 99
2019-04-02 21:00:00 3 4 Noroeste 13 Noroeste 0 -- -- 98
2019-04-02 20:00:00 5.4 5 Norte 14 Oeste 0 -- -- 74
2019-04-02 19:00:00 6.3 8 Noroeste 16 Noroeste 0 -- -- 70
2019-04-02 18:00:00 7.1 6 Noroeste 26 Noroeste 0 -- -- 68
2019-04-02 17:00:00 6.2 11 Noroeste 20 Oeste 0 -- -- 71
2019-04-02 16:00:00 5.9 9 Noroeste 20 Noroeste 0 -- -- 76
2019-04-02 15:00:00 6.2 2 Oeste 21 Sudeste 0 -- -- 74
2019-04-02 14:00:00 4.9 6 Sur 13 Noroeste 0 -- -- 80
2019-04-02 13:00:00 5.1 4 Noroeste 15 Este 0 -- -- 79
2019-04-02 12:00:00 5.8 4 Sur 13 Noroeste 0 -- -- 76
2019-04-02 11:00:00 5.1 4 Sur 8 Sudeste 0 -- -- 75
2019-04-02 10:00:00 1.5 5 Sudeste 6 Este 0 -- -- 85
2019-04-02 09:00:00 1.8 2 Sudeste 10 Sudeste 0 -- -- 90
2019-04-02 08:00:00 1.3 6 Este 10 Sudeste 0 -- -- 86
2019-04-02 07:00:00 1.6 3 Sur 8 Este 0 -- -- 84
2019-04-02 06:00:00 1.5 3 Sudoeste 8 Sudoeste 0 -- -- 85
2019-04-02 05:00:00 1.6 5 Sur 14 Sur 0 -- -- 84
2019-04-02 04:00:00 1.8 9 Sur 17 Sur 0 -- -- 82
2019-04-02 03:00:00 1.9 10 Sudeste 14 Sudeste 0 -- -- 82
2019-04-02 02:00:00 2.3 8 Sudeste 13 Sudeste 0 -- -- 83
2019-04-02 01:00:00 2.6 4 Este 14 Sudeste 0 -- -- 78
2019-04-02 00:00:00 3.2 7 Este 13 Este 0 -- -- 77
2019-04-01 23:00:00 2.8 10 Sudeste 14 Sudeste 0 -- -- 82
2019-04-01 22:00:00 3.4 4 Este 10 Sudeste 0 -- -- 92
2019-04-01 21:00:00 3.4 5 Este 14 Sudeste 0 -- -- 91
2019-04-01 20:00:00 3.9 3 Sur 8 Sur 0 -- -- 89
2019-04-01 19:00:00 4.4 5 Sur 9 Sur 0 -- -- 89
2019-04-01 18:00:00 4.2 2 Noroeste 9 Noroeste 0 -- -- 94
2019-04-01 17:00:00 4.7 5 Noroeste 11 Noroeste 0 -- -- 95
2019-04-01 16:00:00 4.1 4 Noroeste 21 Sur 0 -- -- 96
2019-04-01 15:00:00 4.3 13 Sudeste 21 Sur 0 -- -- 86
2019-04-01 14:00:00 3.9 8 Sudeste 21 Sur 0 -- -- 87
2019-04-01 13:00:00 3.3 10 Sudeste 17 Sudeste 0 -- -- 91
2019-04-01 12:00:00 2.9 5 Noroeste 8 Noroeste 0 -- -- 93
2019-04-01 11:00:00 2.7 4 Noroeste 7 Noroeste 0 -- -- 89
2019-04-01 10:00:00 2.3 4 Noroeste 6 Noroeste 0 -- -- 89
2019-04-01 09:00:00 1.7 0 Calma 15 Sur 0 -- -- 90
2019-04-01 08:00:00 1.8 7 Sur 18 Sur 0 -- -- 90
2019-04-01 07:00:00 0.7 5 Sur 12 Sur 0 -- -- 91
2019-04-01 06:00:00 1.2 3 Noroeste 36 Sudeste 0 -- -- 92
2019-04-01 05:00:00 1.4 21 Sudeste 37 Sur 0 -- -- 91
2019-04-01 04:00:00 1.8 26 Sur 36 Sur 0 -- -- 88
2019-04-01 03:00:00 2 21 Sur 30 Sudeste 0 -- -- 88
2019-04-01 02:00:00 2.2 12 Sudeste 22 Sudeste 0 -- -- 88
2019-04-01 01:00:00 2.1 8 Sur 23 Sur 0.4 -- -- 90
2019-04-01 00:00:00 2.2 13 Sur 32 Sur 0 -- -- 85
2019-03-31 23:00:00 3.4 22 Sur 29 Sur 0 -- -- 74
2019-03-31 22:00:00 3.9 14 Sur 34 Sur 0 -- -- 68
2019-03-31 21:00:00 4.7 19 Sur 31 Sur 0 -- -- 61
2019-03-31 20:00:00 5.3 22 Sudeste 28 Sudeste 0 -- -- 59
2019-03-31 19:00:00 5.5 17 Sudeste 21 Sudeste 0 -- -- 65
2019-03-31 18:00:00 6.6 11 Sudeste 23 Sudeste 0 -- -- 63
2019-03-31 17:00:00 6.5 12 Este 25 Este 0 -- -- 69
2019-03-31 16:00:00 6.9 11 Sudeste 24 Sudeste 0 -- -- 68
2019-03-31 15:00:00 6.5 12 Este 23 Este 0 -- -- 64
2019-03-31 14:00:00 7.6 9 Este 21 Sur 0 -- -- 54
2019-03-31 13:00:00 7.4 12 Sudeste 28 Sudeste 0 -- -- 42
2019-03-31 12:00:00 6.4 17 Sudeste 26 Sudeste 0 -- -- 43
2019-03-31 11:00:00 5.2 17 Sudeste 24 Sudeste 0 -- -- 43
2019-03-31 10:00:00 4.4 17 Sudeste 22 Sudeste 0 -- -- 45
2019-03-31 09:00:00 3.1 17 Sudeste 24 Sudeste 0 -- -- 51
2019-03-31 08:00:00 3 23 Sudeste 25 Sudeste 0 -- -- 46
2019-03-31 07:00:00 3.7 18 Sudeste 27 Sudeste 0 -- -- 46
2019-03-31 06:00:00 3.3 23 Sudeste 29 Sudeste 0 -- -- 50
2019-03-31 05:00:00 3.4 24 Sudeste 29 Sudeste 0 -- -- 52
2019-03-31 03:00:00 3.5 24 Sudeste 30 Sudeste 0 -- -- 53
2019-03-31 01:00:00 3.5 23 Sudeste 27 Sudeste 0 -- -- 54
2019-03-31 00:00:00 3.5 22 Sudeste 27 Sudeste 0 -- -- 55
2019-03-30 23:00:00 3.9 22 Sudeste 26 Sudeste 0 -- -- 57
2019-03-30 22:00:00 4.3 19 Sudeste 26 Sudeste 0 -- -- 57
2019-03-30 21:00:00 5.3 22 Sudeste 28 Sudeste 0 -- -- 58
2019-03-30 20:00:00 5.5 17 Sudeste 20 Sudeste 0 -- -- 62
2019-03-30 19:00:00 5.6 7 Sudeste 18 Sudeste 0 -- -- 65
2019-03-30 18:00:00 6.1 11 Sudeste 19 Sudeste 0 -- -- 65
2019-03-30 17:00:00 6 13 Sudeste 22 Sudeste 0 -- -- 68
2019-03-30 16:00:00 6.5 14 Sudeste 21 Sudeste 0 -- -- 71
2019-03-30 15:00:00 7.7 7 Sudeste 21 Sur 0 -- -- 62
2019-03-30 14:00:00 7.8 9 Este 20 Este 0 -- -- 54
2019-03-30 13:00:00 7.2 5 Noroeste 9 Noroeste 0 -- -- 54
2019-03-30 12:00:00 7.2 5 Noroeste 16 Noroeste 0 -- -- 49
2019-03-30 11:00:00 7.5 9 Noroeste 15 Noroeste 0 -- -- 46
2019-03-30 10:00:00 5.1 11 Sur 18 Sur 0 -- -- 59
2019-03-30 09:00:00 2.2 11 Sudeste 18 Sur 0 -- -- 64
2019-03-30 08:00:00 1.7 13 Sur 21 Sur 0 -- -- 65
2019-03-30 07:00:00 2.1 14 Sur 26 Sudeste 0 -- -- 63
2019-03-30 06:00:00 3 13 Sudeste 25 Sudeste 0 -- -- 60
2019-03-30 05:00:00 3 20 Sudeste 32 Sudeste 0 -- -- 63
2019-03-30 04:00:00 3.6 29 Sudeste 38 Sudeste 0 -- -- 61
2019-03-30 03:00:00 3.3 31 Sudeste 43 Sudeste 0 -- -- 65
2019-03-30 02:00:00 3.8 38 Sudeste 48 Sur 0 -- -- 64
2019-03-30 01:00:00 4.1 33 Sudeste 45 Sur 0 -- -- 64
2019-03-30 00:00:00 4.5 33 Sur 45 Sur 0 -- -- 61
2019-03-29 23:00:00 4.3 29 Sudeste 37 Sudeste 0 -- -- 54
2019-03-29 22:00:00 5.5 18 Sudeste 32 Sudeste 0 -- -- 40
2019-03-29 21:00:00 6.6 15 Sur 30 Sur 0 -- -- 37
2019-03-29 20:00:00 6.5 17 Sur 25 Sur 0 -- -- 38
2019-03-29 19:00:00 7.7 16 Sudeste 30 Sur 0 -- -- 37
2019-03-29 18:00:00 9.4 16 Sudeste 31 Sudeste 0 -- -- 42
2019-03-29 17:00:00 8.8 16 Este 27 Este 0 -- -- 54
2019-03-29 16:00:00 9.8 14 Sudeste 24 Este 0 -- -- 49
2019-03-29 15:00:00 10.2 7 Oeste 17 Oeste 0 -- -- 37
2019-03-29 14:00:00 8.1 7 Noroeste 22 Sur 0 -- -- 56
2019-03-29 13:00:00 8.1 8 Oeste 16 Oeste 0 -- -- 49
2019-03-29 12:00:00 7.9 6 Noroeste 15 Oeste 0 -- -- 53
2019-03-29 11:00:00 8.2 5 Noroeste 14 Noroeste 0 -- -- 38
2019-03-29 10:00:00 6.4 11 Sudeste 17 Sur 0 -- -- 45
2019-03-29 09:00:00 4.6 12 Sudoeste 25 Sudoeste 0 -- -- 46
2019-03-29 08:00:00 4.7 10 Sudoeste 27 Sur 0 -- -- 41
2019-03-29 07:00:00 2.4 23 Sur 28 Sur 0 -- -- 58
2019-03-29 06:00:00 2.9 10 Sur 23 Sur 0 -- -- 57
2019-03-29 05:00:00 3.4 8 Sur 30 Sur 0 -- -- 54
2019-03-29 04:00:00 3.4 28 Sur 35 Sur 0 -- -- 60
2019-03-29 03:00:00 3.1 17 Sur 25 Sur 0 -- -- 59
2019-03-29 02:00:00 2.2 13 Sur 24 Sur 0 -- -- 54
2019-03-29 01:00:00 3 8 Sudeste 20 Este 0 -- -- 45
2019-03-29 00:00:00 3 9 Este 21 Sudeste 0 -- -- 48
2019-03-28 23:00:00 4 18 Sudeste 21 Sudeste 0 -- -- 47
2019-03-28 22:00:00 3.4 15 Este 18 Sudeste 0 -- -- 56
2019-03-28 21:00:00 1.2 4 Este 8 Este 0 -- -- 87
2019-03-28 20:00:00 1.7 4 Sur 14 Sur 0 -- -- 87
2019-03-28 19:00:00 3 11 Sur 14 Sur 0 -- -- 79
2019-03-28 18:00:00 7.5 6 Noroeste 14 Noroeste 0 -- -- 61
2019-03-28 17:00:00 7.7 8 Noroeste 18 Sudeste 0 -- -- 58
2019-03-28 16:00:00 7.7 15 Sudeste 27 Sur 0 -- -- 45
2019-03-28 15:00:00 7 9 Noroeste 16 Noroeste 0 -- -- 59
2019-03-28 14:00:00 6.7 9 Noroeste 22 Sudeste 0 -- -- 63
2019-03-28 13:00:00 6.8 13 Sudeste 25 Sudeste 0 -- -- 48
2019-03-28 12:00:00 4.5 6 Noroeste 21 Sudeste 0 -- -- 72
2019-03-28 11:00:00 2.9 5 Oeste 22 Este 0 -- -- 73
2019-03-28 10:00:00 2.8 9 Sudeste 22 Este 0 -- -- 58
2019-03-28 09:00:00 1.4 14 Este 31 Sudeste 0 -- -- 55
2019-03-28 08:00:00 1.3 23 Sudeste 34 Sur 0 -- -- 42
2019-03-28 07:00:00 1.5 27 Sur 36 Sudeste 0 -- -- 37
2019-03-28 06:00:00 1.2 27 Sur 39 Sur 0 -- -- 40
2019-03-28 05:00:00 1.1 24 Sur 36 Sudeste 0 -- -- 47
2019-03-28 04:00:00 1.5 24 Sur 38 Sur 0 -- -- 41
2019-03-28 03:00:00 2.7 24 Sur 43 Sur 0 -- -- 34
2019-03-28 02:00:00 1.7 30 Sur 41 Sur 0 -- -- 49
2019-03-28 01:00:00 1.5 30 Sur 41 Sur 0 -- -- 52
2019-03-28 00:00:00 1.9 27 Sur 36 Sur 0 -- -- 44
2019-03-27 23:00:00 -1.8 3 Oeste 15 Este 0 -- -- 79
2019-03-27 22:00:00 -1.3 7 Este 14 Este 0 -- -- 64
2019-03-27 21:00:00 -1 4 Este 11 Sur 0 -- -- 78
2019-03-27 20:00:00 0.3 4 Este 17 Noroeste 0 -- -- 74
2019-03-27 19:00:00 3.1 7 Noroeste 21 Noroeste 0 -- -- 58
2019-03-27 18:00:00 5.5 11 Noroeste 27 Noroeste 0 -- -- 45
2019-03-27 17:00:00 6.5 9 Noroeste 25 Oeste 0 -- -- 40
2019-03-27 16:00:00 6.2 14 Noroeste 24 Noroeste 0 -- -- 41
2019-03-27 15:00:00 6.7 8 Noroeste 18 Noroeste 0 -- -- 43
2019-03-27 14:00:00 6.1 5 Oeste 18 Noroeste 0 -- -- 45
2019-03-27 13:00:00 5.8 8 Oeste 27 Sudeste 0 -- -- 45
2019-03-27 12:00:00 5.5 15 Sur 36 Sudeste 0 -- -- 16
2019-03-27 11:00:00 4.5 19 Sur 35 Sur 0 -- -- 20
2019-03-27 10:00:00 3.9 19 Sur 40 Sur 0 -- -- 17
2019-03-27 09:00:00 2.3 21 Sur 41 Sur 0 -- -- 24
2019-03-27 08:00:00 1.6 26 Sur 37 Sur 0 -- -- 21
2019-03-27 07:00:00 0.8 27 Sur 41 Sur 0 -- -- 28
2019-03-27 06:00:00 1.8 29 Sur 46 Sudeste 0 -- -- 22
2019-03-27 05:00:00 2 32 Sur 58 Sur 0 -- -- 26
2019-03-27 04:00:00 2.5 32 Sur 66 Sur 0 -- -- 21
2019-03-27 03:00:00 2.3 27 Sur 50 Sur 0 -- -- 26
2019-03-27 02:00:00 0.6 24 Sur 35 Sur 0 -- -- 36
2019-03-27 01:00:00 0.9 19 Sur 47 Sur 0 -- -- 27
2019-03-27 00:00:00 0.7 26 Sur 46 Sur 0 -- -- 40